Time;durP1;ratioP1;P1;durP2;ratioP2;P2;SDS_P1;SDS_P2;PMS_P1;PMS_P2;Temp;Humidity;BMP_temperature;BMP_pressure;BME280_temperature;BME280_humidity;BME280_pressure;Samples;Min_cycle;Max_cycle;Signal;HPM_P1;HPM_P2
2023/08/20 00:00:20;;;;;;;10.63;5.80;;;;;;;24.11;100.00;101322.66;5083233;28;20472;-72
2023/08/20 00:02:48;;;;;;;10.43;6.53;;;;;;;24.08;100.00;101315.13;5083003;28;20519;-72
2023/08/20 00:05:17;;;;;;;10.33;6.53;;;;;;;24.08;100.00;101320.66;5101475;28;20888;-72
2023/08/20 00:07:44;;;;;;;9.30;6.17;;;;;;;24.05;100.00;101326.16;5100964;28;20441;-72
2023/08/20 00:10:11;;;;;;;11.50;6.20;;;;;;;24.00;100.00;101326.47;5101512;28;20444;-72
2023/08/20 00:12:38;;;;;;;9.13;5.80;;;;;;;23.96;100.00;101328.41;5101211;28;20520;-72
2023/08/20 00:15:06;;;;;;;9.83;6.23;;;;;;;23.93;100.00;101327.16;5101106;28;20877;-72
2023/08/20 00:17:33;;;;;;;12.70;7.03;;;;;;;23.90;100.00;101328.69;5101430;28;20784;-72
2023/08/20 00:20:01;;;;;;;10.13;6.70;;;;;;;23.89;100.00;101327.09;5101993;28;21086;-72
2023/08/20 00:22:30;;;;;;;18.03;6.17;;;;;;;23.96;100.00;101334.72;5102891;28;20437;-71
2023/08/20 00:24:57;;;;;;;7.83;4.53;;;;;;;23.97;100.00;101329.97;5101753;28;20531;-71
2023/08/20 00:27:23;;;;;;;11.27;6.17;;;;;;;24.00;100.00;101337.56;5102010;28;20511;-71
2023/08/20 00:29:50;;;;;;;8.03;5.30;;;;;;;23.97;100.00;101335.53;5101810;28;20523;-71
2023/08/20 00:32:17;;;;;;;6.83;4.60;;;;;;;24.03;100.00;101334.00;5101810;28;20428;-71
2023/08/20 00:34:43;;;;;;;8.83;5.23;;;;;;;24.03;100.00;101345.88;5101458;28;20512;-71
2023/08/20 00:37:10;;;;;;;6.83;4.60;;;;;;;24.00;100.00;101338.34;5102282;28;20539;-71
2023/08/20 00:39:38;;;;;;;8.83;5.13;;;;;;;23.99;100.00;101344.22;5101995;28;20886;-71
2023/08/20 00:42:05;;;;;;;11.43;5.17;;;;;;;24.01;100.00;101347.44;5102078;28;20501;-71
2023/08/20 00:44:32;;;;;;;9.27;5.80;;;;;;;24.00;100.00;101354.94;5101703;28;20435;-71
2023/08/20 00:47:00;;;;;;;9.60;5.53;;;;;;;24.06;100.00;101349.88;5102571;28;20482;-71
2023/08/20 00:49:26;;;;;;;7.70;4.73;;;;;;;24.06;100.00;101350.69;5102319;28;20810;-71
2023/08/20 00:51:54;;;;;;;7.97;4.70;;;;;;;24.11;100.00;101360.63;5101546;28;20464;-72
2023/08/20 00:54:21;;;;;;;8.50;5.40;;;;;;;24.13;100.00;101355.53;5101458;28;20549;-72
2023/08/20 00:56:50;;;;;;;8.33;5.30;;;;;;;24.16;100.00;101360.28;5101648;28;20862;-70
2023/08/20 00:59:17;;;;;;;9.27;5.00;;;;;;;24.16;100.00;101371.38;5102048;28;20527;-71
2023/08/20 01:01:44;;;;;;;12.33;5.10;;;;;;;24.13;100.00;101366.59;5103446;28;20983;-71
2023/08/20 01:04:11;;;;;;;9.00;5.13;;;;;;;24.13;100.00;101364.63;5102495;28;20476;-71
2023/08/20 01:06:45;;;;;;;8.77;5.17;;;;;;;24.13;100.00;101369.38;5100710;28;20472;-71
2023/08/20 01:09:24;;;;;;;7.77;4.90;;;;;;;24.18;100.00;101371.81;5103620;28;20496;-72
2023/08/20 01:11:58;;;;;;;9.07;5.47;;;;;;;24.20;100.00;101377.75;5099962;28;20416;-71
2023/08/20 01:14:25;;;;;;;7.77;4.77;;;;;;;24.18;100.00;101377.34;5100748;28;20447;-71
2023/08/20 01:16:51;;;;;;;7.33;4.37;;;;;;;24.17;100.00;101376.56;5100880;28;20547;-71
2023/08/20 01:19:20;;;;;;;8.30;4.90;;;;;;;24.13;100.00;101386.78;5099934;28;20523;-72
2023/08/20 01:22:01;;;;;;;7.83;5.33;;;;;;;24.15;100.00;101376.09;5081406;28;21018;-71
2023/08/20 01:24:41;;;;;;;7.40;5.00;;;;;;;24.08;100.00;101377.97;5098804;28;20417;-71
2023/08/20 01:27:27;;;;;;;12.77;4.83;;;;;;;24.11;100.00;101380.78;5098031;28;20434;-71
2023/08/20 01:29:56;;;;;;;7.40;4.37;;;;;;;24.12;100.00;101384.34;5100210;28;20435;-70
2023/08/20 01:32:24;;;;;;;10.80;4.30;;;;;;;24.14;100.00;101385.59;5100440;28;20464;-70
2023/08/20 01:34:52;;;;;;;7.30;4.10;;;;;;;24.13;100.00;101388.75;5099098;28;20441;-70
2023/08/20 01:37:19;;;;;;;12.00;5.10;;;;;;;24.08;100.00;101387.09;5098993;28;20436;-70
2023/08/20 01:39:46;;;;;;;7.77;5.07;;;;;;;24.06;100.00;101388.63;5098752;28;20967;-70
2023/08/20 01:42:12;;;;;;;8.63;5.00;;;;;;;24.02;100.00;101390.56;5099733;28;20568;-70
2023/08/20 01:44:39;;;;;;;8.70;4.80;;;;;;;24.01;100.00;101395.28;5099276;28;20464;-70
2023/08/20 01:47:07;;;;;;;8.10;4.20;;;;;;;24.01;100.00;101403.59;5099417;28;20520;-70
2023/08/20 01:49:33;;;;;;;5.60;3.97;;;;;;;23.99;100.00;101408.69;5100234;28;20940;-70
2023/08/20 01:52:00;;;;;;;8.40;4.50;;;;;;;23.97;100.00;101404.72;5098951;28;20500;-70
2023/08/20 01:54:27;;;;;;;6.50;4.50;;;;;;;23.90;100.00;101408.94;5099997;28;20468;-70
2023/08/20 01:56:53;;;;;;;8.43;4.47;;;;;;;23.86;100.00;101404.53;5099884;28;20794;-71
2023/08/20 01:59:23;;;;;;;10.70;6.13;;;;;;;23.82;100.00;101401.72;5100100;28;20523;-71
2023/08/20 02:01:50;;;;;;;7.37;4.73;;;;;;;23.76;100.00;101411.50;5100163;28;20899;-71
2023/08/20 02:04:18;;;;;;;8.90;5.03;;;;;;;23.76;100.00;101413.47;5100728;28;20440;-71
2023/08/20 02:06:44;;;;;;;7.40;4.67;;;;;;;23.71;100.00;101411.81;5100270;28;20488;-70
2023/08/20 02:09:11;;;;;;;8.93;4.93;;;;;;;23.70;100.00;101410.22;5099877;28;20449;-70
2023/08/20 02:11:37;;;;;;;9.13;5.10;;;;;;;23.66;100.00;101412.13;5099061;28;20459;-70
2023/08/20 02:14:04;;;;;;;7.87;4.23;;;;;;;23.65;100.00;101413.31;5099791;28;20547;-71
2023/08/20 02:16:31;;;;;;;7.90;4.70;;;;;;;23.61;100.00;101407.69;5100543;28;20627;-71
2023/08/20 02:18:57;;;;;;;6.30;3.60;;;;;;;23.60;100.00;101417.16;5102569;28;20436;-71
2023/08/20 02:21:25;;;;;;;7.77;4.27;;;;;;;23.58;100.00;101424.22;5104577;28;20500;-71
2023/08/20 02:23:52;;;;;;;8.40;4.93;;;;;;;23.56;100.00;101426.56;5103957;28;20519;-71
2023/08/20 02:26:18;;;;;;;8.10;4.00;;;;;;;23.52;100.00;101426.50;5103232;28;20474;-72
2023/08/20 02:28:45;;;;;;;7.70;4.23;;;;;;;23.50;100.00;101434.34;5102825;28;20508;-71
2023/08/20 02:31:11;;;;;;;6.43;4.43;;;;;;;23.50;100.00;101433.56;5102177;28;20500;-71
2023/08/20 02:33:38;;;;;;;7.73;4.33;;;;;;;23.43;100.00;101437.00;5104206;28;20440;-72
2023/08/20 02:36:05;;;;;;;6.13;3.83;;;;;;;23.41;100.00;101434.59;5104643;28;20490;-71
2023/08/20 02:38:33;;;;;;;8.50;4.60;;;;;;;23.41;100.00;101434.59;5102905;28;20436;-71
2023/08/20 02:41:00;;;;;;;9.20;4.10;;;;;;;23.39;100.00;101442.47;5102681;28;20573;-71
2023/08/20 02:43:26;;;;;;;4.97;3.10;;;;;;;23.32;100.00;101436.78;5103057;28;20531;-71
2023/08/20 02:45:53;;;;;;;5.50;3.40;;;;;;;23.32;100.00;101434.03;5102435;28;20456;-71
2023/08/20 02:48:19;;;;;;;8.00;4.40;;;;;;;23.32;100.00;101434.03;5102201;28;20472;-71
2023/08/20 02:50:46;;;;;;;8.40;4.70;;;;;;;23.30;100.00;101430.84;5101968;28;20491;-71
2023/08/20 02:53:13;;;;;;;7.37;3.67;;;;;;;23.27;100.00;101437.09;5102406;28;20946;-71
2023/08/20 02:55:41;;;;;;;5.60;3.37;;;;;;;23.25;100.00;101439.44;5102519;28;20460;-71
2023/08/20 02:58:08;;;;;;;9.50;4.10;;;;;;;23.21;100.00;101435.81;5103626;28;20952;-71
2023/08/20 03:00:36;;;;;;;5.93;3.90;;;;;;;23.20;100.00;101442.50;5102682;28;20570;-72
2023/08/20 03:03:05;;;;;;;6.67;3.40;;;;;;;23.16;100.00;101452.69;5102863;28;20441;-71
2023/08/20 03:05:32;;;;;;;7.20;4.30;;;;;;;23.11;100.00;101462.09;5103266;28;20475;-71
2023/08/20 03:07:59;;;;;;;6.30;3.53;;;;;;;23.09;100.00;101464.41;5103940;28;20457;-71
2023/08/20 03:10:25;;;;;;;7.10;3.93;;;;;;;23.04;100.00;101469.44;5105389;28;20448;-71
2023/08/20 03:12:53;;;;;;;10.17;4.80;;;;;;;22.99;100.00;101469.72;5112182;28;20433;-71
2023/08/20 03:15:20;;;;;;;6.30;4.00;;;;;;;22.93;100.00;101466.44;5111911;28;20560;-71
2023/08/20 03:17:47;;;;;;;5.70;3.60;;;;;;;22.90;100.00;101461.66;5101688;28;20441;-77
2023/08/20 03:20:13;;;;;;;5.97;3.40;;;;;;;22.89;100.00;101458.09;5096057;28;20861;-77
2023/08/20 03:22:40;;;;;;;6.90;4.27;;;;;;;22.89;100.00;101469.16;5098217;28;20559;-71
2023/08/20 03:25:07;;;;;;;7.27;4.67;;;;;;;22.88;100.00;101469.47;5097952;28;20461;-69
2023/08/20 03:27:34;;;;;;;8.50;4.00;;;;;;;22.82;100.00;101473.69;5101156;28;20523;-69
2023/08/20 03:30:03;;;;;;;6.97;4.33;;;;;;;22.82;100.00;101466.19;5102509;28;20443;-69
2023/08/20 03:32:30;;;;;;;5.90;3.67;;;;;;;22.83;100.00;101464.25;5104629;28;20437;-69
2023/08/20 03:34:58;;;;;;;7.40;4.07;;;;;;;22.79;100.00;101461.41;5103386;28;20955;-69
2023/08/20 03:37:25;;;;;;;7.27;4.03;;;;;;;22.80;100.00;101460.25;5103557;28;20531;-69
2023/08/20 03:39:52;;;;;;;6.67;3.90;;;;;;;22.79;100.00;101466.13;5102373;28;20514;-69
2023/08/20 03:42:19;;;;;;;8.60;5.20;;;;;;;22.77;100.00;101468.47;5102827;28;20492;-69
2023/08/20 03:44:45;;;;;;;6.33;4.13;;;;;;;22.71;100.00;101476.25;5102354;28;21015;-69
2023/08/20 03:47:14;;;;;;;7.07;3.97;;;;;;;22.67;100.00;101480.88;5103192;28;20441;-69
2023/08/20 03:49:40;;;;;;;11.83;4.50;;;;;;;22.65;100.00;101478.47;5103064;28;20487;-69
2023/08/20 03:52:07;;;;;;;8.23;4.80;;;;;;;22.65;100.00;101472.16;5103003;28;20562;-69
2023/08/20 03:54:34;;;;;;;9.60;4.60;;;;;;;22.59;100.00;101474.41;5104235;28;20519;-69
2023/08/20 03:57:01;;;;;;;6.00;3.43;;;;;;;22.59;100.00;101479.94;5104388;28;20516;-70
2023/08/20 03:59:27;;;;;;;8.00;4.63;;;;;;;22.59;100.00;101479.94;5106212;28;20497;-70
2023/08/20 04:01:54;;;;;;;8.33;4.07;;;;;;;22.59;100.00;101474.41;5105289;28;20476;-70
2023/08/20 04:04:22;;;;;;;10.80;4.83;;;;;;;22.55;100.00;101468.00;5084740;28;20991;-69
2023/08/20 04:06:49;;;;;;;10.93;5.80;;;;;;;22.52;100.00;101468.72;5099762;28;20948;-69
2023/08/20 04:09:16;;;;;;;7.80;4.40;;;;;;;22.54;100.00;101477.44;5098778;28;20454;-69
2023/08/20 04:11:43;;;;;;;6.47;3.90;;;;;;;22.53;100.00;101486.06;5095338;28;20436;-69
2023/08/20 04:14:09;;;;;;;10.90;5.40;;;;;;;22.53;100.00;101483.31;5095403;28;20544;-69
2023/08/20 04:16:36;;;;;;;11.27;5.57;;;;;;;22.55;100.00;101489.28;5095340;28;20460;-70
2023/08/20 04:19:03;;;;;;;9.10;5.83;;;;;;;22.53;100.00;101497.13;5095489;28;20912;-69
2023/08/20 04:21:31;;;;;;;11.27;5.50;;;;;;;22.50;100.00;101493.13;5095145;28;20480;-69
2023/08/20 04:23:57;;;;;;;11.17;5.37;;;;;;;22.51;100.00;101483.69;5095195;28;20437;-69
2023/08/20 04:26:24;;;;;;;9.50;5.07;;;;;;;22.45;100.00;101485.13;5095553;28;20456;-69
2023/08/20 04:28:51;;;;;;;9.07;4.57;;;;;;;22.42;100.00;101486.66;5094835;28;20515;-69
2023/08/20 04:31:17;;;;;;;10.60;6.07;;;;;;;22.46;100.00;101481.22;5095065;28;20468;-69
2023/08/20 04:33:44;;;;;;;9.33;5.90;;;;;;;22.51;100.00;101493.94;5095302;28;20440;-69
2023/08/20 04:36:10;;;;;;;9.67;5.60;;;;;;;22.51;100.00;101493.94;5094097;28;20547;-69
2023/08/20 04:38:38;;;;;;;10.57;5.90;;;;;;;22.46;100.00;101497.78;5094266;28;20476;-69
2023/08/20 04:41:05;;;;;;;8.60;4.93;;;;;;;22.46;100.00;101497.78;5095452;28;20494;-69
2023/08/20 04:43:31;;;;;;;10.50;5.97;;;;;;;22.49;100.00;101491.53;5096173;28;20466;-69
2023/08/20 04:45:58;;;;;;;10.37;5.37;;;;;;;22.50;100.00;101492.34;5096384;28;20551;-69
2023/08/20 04:48:24;;;;;;;8.87;5.10;;;;;;;22.51;100.00;101499.47;5095876;28;20448;-69
2023/08/20 04:50:51;;;;;;;9.87;5.90;;;;;;;22.52;100.00;101496.31;5095641;28;20527;-70
2023/08/20 04:53:18;;;;;;;9.87;5.67;;;;;;;22.54;100.00;101496.78;5096515;28;20448;-69
2023/08/20 04:55:46;;;;;;;7.57;4.80;;;;;;;22.56;100.00;101504.69;5096058;28;20475;-69
2023/08/20 04:58:12;;;;;;;10.40;6.10;;;;;;;22.61;100.00;101509.94;5095147;28;20441;-69
2023/08/20 05:00:39;;;;;;;9.40;6.17;;;;;;;22.67;100.00;101505.75;5095372;28;20527;-69
2023/08/20 05:03:05;;;;;;;10.10;5.20;;;;;;;22.72;100.00;101516.50;5096238;28;20845;-69
2023/08/20 05:05:32;;;;;;;9.03;5.30;;;;;;;22.81;100.00;101511.56;5096851;28;20547;-69
2023/08/20 05:07:59;;;;;;;8.73;5.43;;;;;;;22.87;100.00;101518.41;5096193;28;20440;-69
2023/08/20 05:10:25;;;;;;;10.00;6.17;;;;;;;22.91;100.00;101524.84;5096010;28;20523;-69
2023/08/20 05:12:53;;;;;;;7.77;4.50;;;;;;;22.99;100.00;101523.03;5096220;28;20531;-70
2023/08/20 05:15:21;;;;;;;9.60;5.10;;;;;;;23.03;100.00;101520.34;5095364;28;20484;-69
2023/08/20 05:17:47;;;;;;;11.97;5.63;;;;;;;23.05;100.00;101518.81;5096201;28;20440;-69
2023/08/20 05:20:14;;;;;;;9.80;4.90;;;;;;;23.14;100.00;101532.41;5096116;28;20448;-69
2023/08/20 05:22:42;;;;;;;9.07;5.27;;;;;;;23.15;100.00;101543.13;5094656;28;20608;-69
2023/08/20 05:25:09;;;;;;;9.47;5.47;;;;;;;23.18;100.00;101541.59;5095616;28;20463;-69
2023/08/20 05:27:35;;;;;;;8.93;5.50;;;;;;;23.20;100.00;101547.56;5095554;28;20441;-69
2023/08/20 05:30:04;;;;;;;9.67;5.70;;;;;;;23.17;100.00;101553.81;5094646;28;20436;-69
2023/08/20 05:32:30;;;;;;;8.70;4.93;;;;;;;23.15;100.00;101556.94;5095278;28;20429;-69
2023/08/20 05:34:57;;;;;;;8.90;5.27;;;;;;;23.04;100.00;101553.16;5094763;28;20441;-69
2023/08/20 05:37:24;;;;;;;7.97;5.10;;;;;;;23.01;100.00;101555.84;5094455;28;20516;-69
2023/08/20 05:39:50;;;;;;;8.33;5.60;;;;;;;23.08;100.00;101564.28;5094837;28;20432;-69
2023/08/20 05:42:17;;;;;;;9.70;5.70;;;;;;;22.99;100.00;101569.22;5093925;28;21102;-69
2023/08/20 05:44:44;;;;;;;12.10;5.43;;;;;;;22.89;100.00;101565.03;5093862;28;20435;-69
2023/08/20 05:47:12;;;;;;;8.63;5.20;;;;;;;22.97;100.00;101571.53;5094335;28;20527;-69
2023/08/20 05:49:38;;;;;;;8.83;6.10;;;;;;;22.88;100.00;101569.72;5095205;28;20440;-69
2023/08/20 05:52:05;;;;;;;10.07;5.70;;;;;;;22.91;100.00;101571.81;5095202;28;20443;-69
2023/08/20 05:54:31;;;;;;;6.80;4.67;;;;;;;22.95;100.00;101580.19;5097943;28;20462;-69
2023/08/20 05:56:58;;;;;;;9.93;5.40;;;;;;;22.90;100.00;101575.75;5097926;28;20547;-69
2023/08/20 05:59:25;;;;;;;9.60;4.27;;;;;;;22.89;100.00;101568.63;5104318;28;20464;-74
2023/08/20 06:01:54;;;;;;;10.67;4.40;;;;;;;22.95;100.00;101568.34;5107148;28;20539;-76
2023/08/20 06:04:22;;;;;;;9.23;4.97;;;;;;;22.95;100.00;101566.38;5108017;28;20491;-72
2023/08/20 06:06:48;;;;;;;11.00;5.57;;;;;;;22.91;100.00;101563.53;5102859;28;20547;-72
2023/08/20 06:09:15;;;;;;;8.60;4.43;;;;;;;22.97;100.00;101580.63;5097406;28;20439;-71
2023/08/20 06:11:41;;;;;;;8.00;4.97;;;;;;;23.02;100.00;101587.81;5097312;28;20446;-71
2023/08/20 06:14:08;;;;;;;7.07;4.10;;;;;;;22.96;100.00;101592.03;5098053;28;21130;-71
2023/08/20 06:16:35;;;;;;;8.83;5.07;;;;;;;22.99;100.00;101586.59;5096459;28;20976;-71
2023/08/20 06:19:01;;;;;;;7.70;4.37;;;;;;;23.01;100.00;101591.75;5096970;28;20447;-71
2023/08/20 06:21:29;;;;;;;8.93;3.90;;;;;;;22.92;100.00;101586.44;5098700;28;20842;-78
2023/08/20 06:23:56;;;;;;;6.70;4.03;;;;;;;22.88;100.00;101594.59;5098532;28;20523;-77
2023/08/20 06:26:23;;;;;;;8.17;4.00;;;;;;;22.90;100.00;101594.28;5102243;28;20482;-71
2023/08/20 06:28:49;;;;;;;8.70;3.90;;;;;;;23.02;100.00;101596.94;5100807;28;20528;-71
2023/08/20 06:31:16;;;;;;;7.10;3.90;;;;;;;22.99;100.00;101602.38;5099013;28;20445;-71
2023/08/20 06:33:43;;;;;;;5.97;3.40;;;;;;;22.99;100.00;101607.91;5099114;28;20432;-71
2023/08/20 06:36:10;;;;;;;8.50;4.67;;;;;;;23.20;100.00;101604.78;5100456;28;20452;-71
2023/08/20 06:38:38;;;;;;;6.93;4.60;;;;;;;23.22;100.00;101608.81;5099006;28;20445;-71
2023/08/20 06:41:04;;;;;;;6.40;3.90;;;;;;;23.27;100.00;101608.53;5098962;28;20438;-71
2023/08/20 06:43:31;;;;;;;7.80;4.20;;;;;;;23.37;100.00;101616.25;5098985;28;20551;-71
2023/08/20 06:45:57;;;;;;;6.70;3.60;;;;;;;23.26;99.83;101617.19;5099189;28;20533;-71
2023/08/20 06:48:26;;;;;;;5.20;3.03;;;;;;;23.30;99.59;101616.09;5099406;28;20443;-71
2023/08/20 06:50:52;;;;;;;6.17;3.00;;;;;;;23.30;100.00;101627.16;5097221;28;20444;-71
2023/08/20 06:53:19;;;;;;;12.73;3.07;;;;;;;23.34;99.37;101624.47;5096703;28;20865;-71
2023/08/20 06:55:47;;;;;;;5.70;3.17;;;;;;;23.26;96.91;101631.81;5097647;28;20470;-71
2023/08/20 06:58:13;;;;;;;5.77;2.90;;;;;;;23.18;97.50;101630.03;5098087;28;20447;-71
2023/08/20 07:00:40;;;;;;;4.87;2.60;;;;;;;23.09;98.33;101635.78;5096998;28;20439;-71
2023/08/20 07:03:06;;;;;;;6.53;2.93;;;;;;;23.17;96.95;101642.28;5097279;28;20523;-71
2023/08/20 07:05:33;;;;;;;7.30;2.37;;;;;;;23.20;95.83;101632.44;5097419;28;20547;-71
2023/08/20 07:08:00;;;;;;;4.77;2.50;;;;;;;23.14;95.58;101649.31;5097430;28;20447;-71
2023/08/20 07:10:26;;;;;;;3.83;2.30;;;;;;;23.00;95.75;101631.63;5097487;28;20432;-71
2023/08/20 07:12:54;;;;;;;3.90;2.07;;;;;;;22.91;95.25;101640.09;5097555;28;20519;-71
2023/08/20 07:15:21;;;;;;;3.80;1.47;;;;;;;22.78;96.49;101646.88;5097732;28;20460;-70
2023/08/20 07:17:47;;;;;;;3.20;1.43;;;;;;;22.55;96.61;101641.19;5098758;28;20527;-70
2023/08/20 07:20:14;;;;;;;3.50;1.67;;;;;;;22.62;96.11;101646.88;5097639;28;20798;-71
2023/08/20 07:22:42;;;;;;;2.90;1.40;;;;;;;22.60;96.04;101658.28;5097618;28;20822;-70
2023/08/20 07:25:09;;;;;;;3.07;1.20;;;;;;;22.60;96.65;101658.28;5097305;28;20510;-70
2023/08/20 07:27:35;;;;;;;3.23;1.40;;;;;;;22.67;96.46;101658.47;5097655;28;20440;-70
2023/08/20 07:30:03;;;;;;;3.60;1.60;;;;;;;22.71;96.28;101657.72;5098300;28;20531;-70
2023/08/20 07:32:30;;;;;;;3.60;1.70;;;;;;;22.69;95.71;101660.06;5098729;28;20812;-70
2023/08/20 07:34:57;;;;;;;3.47;1.63;;;;;;;22.77;95.24;101670.94;5099241;28;20455;-70
2023/08/20 07:37:23;;;;;;;3.30;1.40;;;;;;;22.82;95.28;101667.88;5100406;28;20469;-70
2023/08/20 07:39:50;;;;;;;5.60;1.30;;;;;;;22.88;96.22;101668.41;5097559;28;20440;-70
2023/08/20 07:42:18;;;;;;;3.30;1.40;;;;;;;23.03;94.74;101664.06;5098250;28;20829;-70
2023/08/20 07:44:44;;;;;;;3.27;1.80;;;;;;;23.12;94.35;101661.91;5098462;28;20468;-70
2023/08/20 07:47:12;;;;;;;3.53;1.67;;;;;;;23.28;91.93;101662.66;5098202;28;20524;-70
2023/08/20 07:49:39;;;;;;;2.97;1.37;;;;;;;23.33;91.75;101662.38;5097906;28;20443;-70
2023/08/20 07:52:05;;;;;;;4.60;1.10;;;;;;;23.38;92.10;101659.34;5098056;28;20511;-71
2023/08/20 07:54:32;;;;;;;2.97;1.30;;;;;;;23.52;90.31;101663.56;5097964;28;20448;-71
2023/08/20 07:56:59;;;;;;;3.43;1.57;;;;;;;23.66;90.01;101655.59;5098259;28;20460;-71
2023/08/20 07:59:25;;;;;;;2.90;1.37;;;;;;;23.84;87.35;101658.72;5097077;28;20526;-71
2023/08/20 08:01:52;;;;;;;2.47;0.93;;;;;;;24.00;86.65;101662.19;5098702;28;20512;-71
2023/08/20 08:04:20;;;;;;;2.67;1.00;;;;;;;24.05;84.67;101669.41;5098433;28;20490;-71
2023/08/20 08:06:47;;;;;;;2.90;0.97;;;;;;;24.10;82.67;101667.13;5097388;28;20557;-71
2023/08/20 08:09:21;;;;;;;3.37;1.40;;;;;;;24.17;82.42;101658.97;5099684;28;20528;-75
2023/08/20 08:11:48;;;;;;;2.50;1.00;;;;;;;24.33;79.92;101658.03;5107616;28;20440;-76
2023/08/20 08:14:15;;;;;;;2.30;0.80;;;;;;;24.49;78.12;101671.81;5103174;28;20975;-72
2023/08/20 08:16:43;;;;;;;3.40;1.30;;;;;;;24.58;78.82;101670.38;5098144;28;20480;-72
2023/08/20 08:19:10;;;;;;;2.20;0.87;;;;;;;24.62;80.20;101670.44;5104136;28;20468;-74
2023/08/20 08:21:38;;;;;;;2.80;1.10;;;;;;;24.71;79.65;101664.66;5097938;28;20433;-70
2023/08/20 08:24:05;;;;;;;2.50;1.03;;;;;;;24.86;76.50;101681.13;5096668;28;20488;-70
2023/08/20 08:26:34;;;;;;;3.70;1.50;;;;;;;24.99;76.16;101678.16;5096081;28;20453;-69
2023/08/20 08:29:01;;;;;;;3.53;1.27;;;;;;;24.95;73.27;101682.84;5096831;28;20441;-69
2023/08/20 08:31:28;;;;;;;2.30;0.80;;;;;;;24.95;73.24;101666.19;5095985;28;20529;-69
2023/08/20 08:33:54;;;;;;;2.00;0.60;;;;;;;24.91;71.97;101666.13;5095981;28;20433;-69
2023/08/20 08:36:21;;;;;;;2.20;0.77;;;;;;;24.88;73.57;101658.56;5097140;28;20543;-69
2023/08/20 08:38:49;;;;;;;2.30;0.93;;;;;;;24.88;73.55;101662.16;5097312;28;20871;-69
2023/08/20 08:41:16;;;;;;;2.37;1.00;;;;;;;24.83;72.03;101669.97;5097424;28;20433;-69
2023/08/20 08:43:42;;;;;;;2.20;0.70;;;;;;;24.70;71.81;101665.81;5096859;28;20571;-69
2023/08/20 08:46:13;;;;;;;2.03;0.57;;;;;;;24.70;71.13;101666.59;5096847;28;20460;-69
2023/08/20 08:48:42;;;;;;;1.80;0.40;;;;;;;24.69;71.43;101662.22;5097872;28;20420;-70
2023/08/20 08:51:09;;;;;;;2.53;0.90;;;;;;;24.77;71.74;101655.63;5098484;28;20477;-70
2023/08/20 08:53:36;;;;;;;2.30;0.70;;;;;;;24.86;71.55;101658.94;5098447;28;20429;-70
2023/08/20 08:56:05;;;;;;;1.83;0.47;;;;;;;25.05;71.26;101663.56;5098049;28;20531;-70
2023/08/20 08:58:33;;;;;;;2.20;0.87;;;;;;;25.19;69.48;101659.44;5097672;28;20928;-70
2023/08/20 09:01:00;;;;;;;2.40;0.80;;;;;;;25.36;69.03;101658.88;5098246;28;20436;-70
2023/08/20 09:03:27;;;;;;;1.90;0.50;;;;;;;25.47;67.98;101664.59;5098095;28;20486;-70
2023/08/20 09:05:58;;;;;;;2.20;0.60;;;;;;;25.47;69.23;101662.63;5096696;28;20489;-70
2023/08/20 09:08:28;;;;;;;2.43;0.90;;;;;;;25.53;69.44;101658.31;5097832;28;20457;-70
2023/08/20 09:10:57;;;;;;;2.37;0.80;;;;;;;25.55;69.88;101667.09;5097279;28;20443;-70
2023/08/20 09:13:26;;;;;;;2.73;0.90;;;;;;;25.49;70.56;101670.56;5098157;28;20439;-70
2023/08/20 09:15:53;;;;;;;2.50;0.60;;;;;;;25.41;71.45;101672.41;5097538;28;20912;-70
2023/08/20 09:18:20;;;;;;;2.97;0.80;;;;;;;25.42;71.33;101665.72;5098596;28;20904;-70
2023/08/20 09:20:49;;;;;;;2.30;0.90;;;;;;;25.44;70.86;101663.34;5096585;28;20863;-70
2023/08/20 09:23:15;;;;;;;2.50;0.80;;;;;;;25.50;70.31;101661.03;5097205;28;20478;-70
2023/08/20 09:25:45;;;;;;;2.63;0.83;;;;;;;25.52;69.97;101651.19;5096105;28;20470;-70
2023/08/20 09:28:12;;;;;;;2.83;0.90;;;;;;;25.54;69.05;101648.81;5098574;28;20471;-70
2023/08/20 09:30:41;;;;;;;2.20;0.70;;;;;;;25.52;67.81;101659.50;5100431;28;20936;-70
2023/08/20 09:33:11;;;;;;;5.57;0.97;;;;;;;25.48;69.10;101664.22;5100346;28;20468;-70
2023/08/20 09:35:38;;;;;;;2.40;0.97;;;;;;;25.56;65.78;101674.22;5100095;28;20539;-70
2023/08/20 09:38:05;;;;;;;2.00;0.77;;;;;;;25.48;66.74;101671.72;5101429;28;20527;-70
2023/08/20 09:40:32;;;;;;;2.30;0.77;;;;;;;25.47;67.61;101681.25;5098725;28;20444;-70
2023/08/20 09:42:58;;;;;;;3.80;0.80;;;;;;;25.58;68.25;101688.50;5098421;28;20512;-70
2023/08/20 09:45:26;;;;;;;2.00;0.57;;;;;;;25.68;66.73;101681.50;5098624;28;21055;-70
2023/08/20 09:47:57;;;;;;;2.37;0.67;;;;;;;25.72;67.11;101679.59;5098454;28;20447;-70
2023/08/20 09:50:24;;;;;;;2.50;0.83;;;;;;;25.78;63.97;101677.28;5098033;28;20820;-70
2023/08/20 09:52:58;;;;;;;2.00;0.70;;;;;;;25.84;66.18;101684.91;5099191;28;20432;-70
2023/08/20 09:55:30;;;;;;;1.90;0.50;;;;;;;25.90;67.31;101688.16;5098828;28;20542;-70
2023/08/20 09:57:57;;;;;;;2.43;0.77;;;;;;;25.94;68.23;101682.63;5098129;28;20420;-70
2023/08/20 10:00:24;;;;;;;3.03;0.97;;;;;;;26.02;68.58;101700.97;5099339;28;20479;-70
2023/08/20 10:02:54;;;;;;;2.57;0.77;;;;;;;26.05;70.52;101686.31;5097683;28;20483;-70
2023/08/20 10:05:21;;;;;;;1.90;0.60;;;;;;;26.13;67.25;101694.34;5097862;28;20456;-70
2023/08/20 10:07:48;;;;;;;2.20;0.77;;;;;;;26.27;67.08;101688.13;5098376;28;20818;-70
2023/08/20 10:10:16;;;;;;;2.50;0.77;;;;;;;26.35;66.63;101684.25;5099017;28;20777;-70
2023/08/20 10:12:44;;;;;;;2.10;0.80;;;;;;;26.35;66.49;101687.03;5098245;28;20489;-70
2023/08/20 10:15:13;;;;;;;2.20;0.80;;;;;;;26.40;68.10;101683.91;5097101;28;21057;-70
2023/08/20 10:17:42;;;;;;;2.83;0.90;;;;;;;26.47;68.30;101660.94;5099050;28;20433;-70
2023/08/20 10:20:14;;;;;;;2.67;0.77;;;;;;;26.61;66.12;101666.66;5098379;28;20942;-70
2023/08/20 10:22:43;;;;;;;2.50;0.80;;;;;;;26.63;64.75;101663.47;5099284;28;20409;-71
2023/08/20 10:25:10;;;;;;;2.20;0.60;;;;;;;26.72;64.84;101658.38;5097496;28;20977;-70
2023/08/20 10:27:39;;;;;;;3.03;0.90;;;;;;;26.80;65.71;101657.25;5097164;28;20539;-70
2023/08/20 10:30:15;;;;;;;3.00;0.97;;;;;;;26.89;63.65;101657.72;5096872;28;20490;-70
2023/08/20 10:32:46;;;;;;;2.40;0.87;;;;;;;26.93;65.68;101654.97;5097574;28;20425;-70
2023/08/20 10:35:16;;;;;;;2.30;0.90;;;;;;;27.02;65.73;101651.84;5096922;28;20456;-70
2023/08/20 10:38:04;;;;;;;2.83;1.37;;;;;;;27.05;67.08;101662.16;5097244;28;20425;-70
2023/08/20 10:40:52;;;;;;;2.50;0.97;;;;;;;27.10;64.07;101661.88;5096886;28;20427;-70
2023/08/20 10:43:33;;;;;;;2.73;1.10;;;;;;;27.24;61.68;101664.72;5098804;28;20476;-70
2023/08/20 10:46:07;;;;;;;2.83;0.80;;;;;;;27.25;62.32;101671.88;5097846;28;20461;-70
2023/08/20 10:48:35;;;;;;;2.83;1.00;;;;;;;27.29;64.54;101667.13;5097119;28;20515;-70
2023/08/20 10:51:10;;;;;;;2.20;0.80;;;;;;;27.41;66.50;101652.88;5096924;28;20473;-70
2023/08/20 10:53:37;;;;;;;3.00;1.23;;;;;;;27.69;63.06;101661.75;5097618;28;20419;-70
2023/08/20 10:56:11;;;;;;;2.30;0.83;;;;;;;27.97;61.01;101663.84;5097300;28;20543;-70
2023/08/20 10:58:41;;;;;;;2.30;0.80;;;;;;;28.14;59.78;101674.22;5097382;28;20527;-70
2023/08/20 11:01:15;;;;;;;2.80;1.17;;;;;;;28.24;57.65;101673.44;5098442;28;20508;-70
2023/08/20 11:03:42;;;;;;;2.13;0.80;;;;;;;28.24;59.01;101675.41;5097482;28;20468;-70
2023/08/20 11:06:10;;;;;;;2.77;1.10;;;;;;;28.27;58.28;101671.84;5097890;28;20488;-70
2023/08/20 11:08:37;;;;;;;2.37;0.90;;;;;;;28.30;60.23;101674.66;5097481;28;20933;-70
2023/08/20 11:11:04;;;;;;;2.60;1.07;;;;;;;28.45;58.46;101669.09;5097960;28;20436;-70
2023/08/20 11:13:33;;;;;;;2.73;1.00;;;;;;;28.64;58.19;101669.53;5096537;28;20591;-70
2023/08/20 11:15:59;;;;;;;2.50;0.90;;;;;;;28.67;57.97;101665.13;5098033;28;20476;-70
2023/08/20 11:18:26;;;;;;;2.47;1.00;;;;;;;28.72;58.50;101673.09;5099551;28;20444;-70
2023/08/20 11:20:54;;;;;;;2.43;1.30;;;;;;;29.24;57.06;101659.47;5104683;28;20447;-74